createdAt,value
2022-08-17T00:01:51.590Z,2.60
2022-08-17T00:04:21.877Z,2.53
2022-08-17T00:06:49.525Z,2.53
2022-08-17T00:09:18.532Z,2.30
2022-08-17T00:12:42.639Z,2.80
2022-08-17T00:14:34.300Z,2.22
2022-08-17T00:17:04.873Z,2.20
2022-08-17T00:19:33.069Z,2.55
2022-08-17T00:22:33.214Z,2.38
2022-08-17T00:24:50.457Z,2.22
2022-08-17T00:27:17.586Z,2.58
2022-08-17T00:29:47.051Z,2.45
2022-08-17T00:33:22.894Z,2.58
2022-08-17T00:35:07.156Z,2.35
2022-08-17T00:37:36.801Z,2.15
2022-08-17T00:40:04.100Z,2.17
2022-08-17T00:42:31.364Z,2.40
2022-08-17T00:44:58.637Z,2.70
2022-08-17T00:47:26.086Z,2.90
2022-08-17T00:49:55.650Z,2.20
2022-08-17T00:52:27.863Z,2.40
2022-08-17T00:54:55.153Z,2.20
2022-08-17T00:57:27.938Z,2.70
2022-08-17T01:00:03.104Z,2.10
2022-08-17T01:02:34.385Z,2.45
2022-08-17T01:05:09.477Z,2.30
2022-08-17T01:07:38.026Z,2.33
2022-08-17T01:10:06.832Z,2.35
2022-08-17T01:12:34.716Z,2.17
2022-08-17T01:15:01.419Z,2.38
2022-08-17T01:17:29.188Z,2.67
2022-08-17T01:19:56.010Z,2.45
2022-08-17T01:22:23.576Z,2.35
2022-08-17T01:24:53.932Z,2.28
2022-08-17T01:27:21.581Z,2.35
2022-08-17T01:29:50.350Z,2.33
2022-08-17T01:32:17.129Z,2.17
2022-08-17T01:34:50.258Z,2.08
2022-08-17T01:37:18.292Z,2.58
2022-08-17T01:39:47.895Z,2.42
2022-08-17T01:42:34.926Z,2.50
2022-08-17T01:45:06.921Z,2.22
2022-08-17T01:47:36.154Z,2.10
2022-08-17T01:50:07.509Z,2.35
2022-08-17T01:52:34.580Z,2.47
2022-08-17T01:55:04.165Z,2.28
2022-08-17T01:57:31.211Z,2.00
2022-08-17T01:59:58.006Z,1.88
2022-08-17T02:02:31.404Z,2.50
2022-08-17T02:04:58.440Z,2.00
2022-08-17T02:07:27.015Z,2.55
2022-08-17T02:09:54.187Z,2.20
2022-08-17T02:12:39.377Z,2.28
2022-08-17T02:15:07.340Z,2.13
2022-08-17T02:17:36.891Z,2.53
2022-08-17T02:20:04.625Z,2.28
2022-08-17T02:22:34.157Z,2.75
2022-08-17T02:25:02.419Z,2.47
2022-08-17T02:27:29.455Z,2.75
2022-08-17T02:29:56.384Z,2.28
2022-08-17T02:32:27.821Z,2.70
2022-08-17T02:34:56.054Z,2.55
2022-08-17T02:37:22.716Z,2.03
2022-08-17T02:39:49.541Z,2.40
2022-08-17T02:42:16.357Z,2.40
2022-08-17T02:44:43.313Z,2.65
2022-08-17T02:47:10.979Z,2.65
2022-08-17T02:49:38.149Z,2.40
2022-08-17T02:52:05.977Z,1.95
2022-08-17T02:54:41.618Z,2.45
2022-08-17T02:57:13.345Z,2.20
2022-08-17T02:59:48.776Z,2.47
2022-08-17T03:02:15.835Z,2.20
2022-08-17T03:04:42.541Z,2.35
2022-08-17T03:07:09.474Z,1.95
2022-08-17T03:09:36.339Z,2.45
2022-08-17T03:12:10.526Z,2.33
2022-08-17T03:14:41.265Z,1.98
2022-08-17T03:17:11.340Z,2.10
2022-08-17T03:19:47.423Z,1.70
2022-08-17T03:22:36.933Z,2.30
2022-08-17T03:25:04.827Z,2.25
2022-08-17T03:27:42.070Z,2.22
2022-08-17T03:30:13.575Z,2.28
2022-08-17T03:32:41.744Z,2.67
2022-08-17T03:35:08.983Z,2.50
2022-08-17T03:37:36.018Z,2.20
2022-08-17T03:40:03.127Z,2.50
2022-08-17T03:42:32.188Z,2.47
2022-08-17T03:45:00.266Z,2.00
2022-08-17T03:47:45.485Z,2.65
2022-08-17T03:50:31.507Z,2.25
2022-08-17T03:53:16.688Z,2.28
2022-08-17T03:56:01.806Z,2.25
2022-08-17T03:58:28.507Z,2.33
2022-08-17T04:00:55.573Z,2.08
2022-08-17T04:03:22.256Z,2.05
2022-08-17T04:05:49.049Z,2.05
2022-08-17T04:08:15.777Z,2.53
2022-08-17T04:10:45.245Z,2.45
2022-08-17T04:13:12.485Z,2.22
2022-08-17T04:15:39.159Z,2.63
2022-08-17T04:18:07.435Z,2.53
2022-08-17T04:20:34.816Z,2.20
2022-08-17T04:23:09.579Z,2.30
2022-08-17T04:25:37.099Z,2.00
2022-08-17T04:28:04.302Z,2.10
2022-08-17T04:30:35.294Z,2.45
2022-08-17T04:33:10.529Z,2.35
2022-08-17T04:35:39.799Z,2.53
2022-08-17T04:38:07.235Z,2.35
2022-08-17T04:40:53.281Z,2.00
2022-08-17T04:43:21.482Z,2.20
2022-08-17T04:45:55.096Z,1.52
2022-08-17T04:48:29.737Z,2.25
2022-08-17T04:51:05.460Z,2.33
2022-08-17T04:53:32.209Z,2.45
2022-08-17T04:56:02.520Z,2.15
2022-08-17T04:58:29.216Z,2.05
2022-08-17T05:00:58.848Z,2.47
2022-08-17T05:03:25.832Z,2.20
2022-08-17T05:05:53.932Z,2.45
2022-08-17T05:08:21.288Z,2.13
2022-08-17T05:10:48.607Z,2.90
2022-08-17T05:13:18.506Z,2.75
2022-08-17T05:15:47.773Z,2.72
2022-08-17T05:18:15.103Z,2.45
2022-08-17T05:20:45.274Z,2.30
2022-08-17T05:23:13.182Z,2.22
2022-08-17T05:25:41.542Z,2.50
2022-08-17T05:28:08.800Z,2.65
2022-08-17T05:30:36.386Z,2.58
2022-08-17T05:33:04.984Z,2.70
2022-08-17T05:35:32.718Z,2.65
2022-08-17T05:37:59.703Z,2.70
2022-08-17T05:40:26.983Z,2.28
2022-08-17T05:43:05.538Z,2.95
2022-08-17T05:45:55.727Z,2.78
2022-08-17T05:48:18.994Z,2.45
2022-08-17T05:50:45.775Z,2.58
2022-08-17T05:53:18.713Z,2.33
2022-08-17T05:55:50.737Z,2.30
2022-08-17T05:58:31.328Z,2.90
2022-08-17T06:01:14.938Z,2.72
2022-08-17T06:04:00.342Z,2.47
2022-08-17T06:06:31.140Z,2.75
2022-08-17T06:09:36.951Z,3.13
2022-08-17T06:12:14.452Z,3.00
2022-08-17T06:14:49.188Z,2.75
2022-08-17T06:17:18.609Z,2.85
2022-08-17T06:19:51.606Z,3.00
2022-08-17T06:22:20.116Z,2.88
2022-08-17T06:24:53.347Z,3.15
2022-08-17T06:27:25.493Z,3.53
2022-08-17T06:30:08.267Z,2.83
2022-08-17T06:32:38.725Z,2.83
2022-08-17T06:35:07.785Z,2.80
2022-08-17T06:37:59.798Z,3.20
2022-08-17T06:41:01.892Z,3.10
2022-08-17T06:43:40.397Z,2.95
2022-08-17T06:46:11.624Z,2.88
2022-08-17T06:48:43.654Z,3.22
2022-08-17T06:51:22.203Z,2.55
2022-08-17T06:53:53.447Z,3.42
2022-08-17T06:56:52.987Z,3.10
2022-08-17T06:59:26.532Z,2.85
2022-08-17T07:02:15.640Z,3.22
2022-08-17T07:04:43.186Z,2.80
2022-08-17T07:07:30.542Z,3.08
2022-08-17T07:10:01.413Z,2.58
2022-08-17T07:12:32.852Z,2.65
2022-08-17T07:15:05.537Z,3.55
2022-08-17T07:17:46.955Z,3.40
2022-08-17T07:20:19.578Z,2.90
2022-08-17T07:23:05.367Z,2.72
2022-08-17T07:25:32.819Z,2.58
2022-08-17T07:28:02.600Z,2.95
2022-08-17T07:30:46.881Z,2.42
2022-08-17T07:33:20.370Z,2.90
2022-08-17T07:35:48.549Z,2.42
2022-08-17T07:38:28.498Z,2.53
2022-08-17T07:40:58.040Z,2.50
2022-08-17T07:43:24.834Z,2.50
2022-08-17T07:46:10.157Z,2.67
2022-08-17T07:48:38.793Z,2.38
2022-08-17T07:51:27.088Z,2.42
2022-08-17T07:54:13.545Z,2.53
2022-08-17T07:56:41.394Z,2.50
2022-08-17T07:59:09.949Z,2.58
2022-08-17T08:01:39.758Z,2.17
2022-08-17T08:04:37.572Z,2.15
2022-08-17T08:07:22.245Z,2.20
2022-08-17T08:10:07.017Z,2.25
2022-08-17T08:12:39.734Z,2.45
2022-08-17T08:15:15.484Z,2.15
2022-08-17T08:17:47.735Z,2.10
2022-08-17T08:20:37.609Z,2.30
2022-08-17T08:23:15.868Z,2.30
2022-08-17T08:25:45.819Z,2.22
2022-08-17T08:28:20.307Z,1.65
2022-08-17T08:30:49.718Z,2.05
2022-08-17T08:33:36.742Z,1.98
2022-08-17T08:37:16.030Z,2.10
2022-08-17T08:39:20.835Z,1.85
2022-08-17T08:42:00.921Z,1.73
2022-08-17T08:45:00.503Z,1.63
2022-08-17T08:47:41.809Z,2.25
2022-08-17T08:50:38.510Z,1.98
2022-08-17T08:53:23.648Z,1.88
2022-08-17T08:55:59.797Z,1.90
2022-08-17T08:58:46.942Z,1.92
2022-08-17T09:01:17.690Z,1.45
2022-08-17T09:04:21.374Z,2.13
2022-08-17T09:07:08.639Z,1.58
2022-08-17T09:09:42.897Z,2.10
2022-08-17T09:12:14.136Z,1.80
2022-08-17T09:14:46.985Z,1.88
2022-08-17T09:17:18.323Z,1.65
2022-08-17T09:20:05.553Z,1.80
2022-08-17T09:22:44.494Z,1.58
2022-08-17T09:25:13.955Z,1.70
2022-08-17T09:28:10.571Z,1.38
2022-08-17T09:30:50.533Z,1.60
2022-08-17T09:33:23.134Z,1.58
2022-08-17T09:35:52.925Z,1.77
2022-08-17T09:38:32.798Z,1.85
2022-08-17T09:40:59.703Z,1.80
2022-08-17T09:43:35.465Z,1.58
2022-08-17T09:46:22.308Z,1.60
2022-08-17T09:48:55.638Z,1.65
2022-08-17T09:51:31.152Z,1.92
2022-08-17T09:54:20.927Z,1.75
2022-08-17T09:57:28.166Z,1.73
2022-08-17T09:59:55.671Z,2.10
2022-08-17T10:02:28.262Z,1.95
2022-08-17T10:05:04.358Z,1.95
2022-08-17T10:07:31.394Z,1.80
2022-08-17T10:10:03.314Z,2.00
2022-08-17T10:12:47.131Z,2.35
2022-08-17T10:15:42.677Z,1.85
2022-08-17T10:18:16.223Z,1.65
2022-08-17T10:20:43.251Z,1.80
2022-08-17T10:23:48.056Z,2.13
2022-08-17T10:26:20.928Z,1.88
2022-08-17T10:28:57.543Z,1.70
2022-08-17T10:31:36.163Z,1.80
2022-08-17T10:34:08.857Z,1.80
2022-08-17T10:36:40.823Z,1.70
2022-08-17T10:39:33.435Z,1.67
2022-08-17T10:42:03.326Z,1.90
2022-08-17T10:44:48.768Z,1.77
2022-08-17T10:47:20.864Z,1.63
2022-08-17T10:49:54.366Z,2.00
2022-08-17T10:52:26.236Z,1.80
2022-08-17T10:54:57.857Z,1.60
2022-08-17T10:57:28.814Z,1.60
2022-08-17T10:59:56.213Z,1.50
2022-08-17T11:02:26.294Z,1.85
2022-08-17T11:05:13.452Z,1.95
2022-08-17T11:08:05.678Z,1.88
2022-08-17T11:10:42.630Z,1.90
2022-08-17T11:13:14.930Z,1.60
2022-08-17T11:16:09.212Z,2.08
2022-08-17T11:18:36.027Z,1.90
2022-08-17T11:21:21.729Z,1.85
2022-08-17T11:23:48.779Z,1.80
2022-08-17T11:26:26.781Z,2.00
2022-08-17T11:29:00.276Z,2.00
2022-08-17T11:31:44.515Z,1.58
2022-08-17T11:34:19.022Z,1.75
2022-08-17T11:37:06.988Z,1.70
2022-08-17T11:39:37.052Z,1.90
2022-08-17T11:42:05.705Z,1.90
2022-08-17T11:44:47.703Z,1.63
2022-08-17T11:47:39.496Z,1.60
2022-08-17T11:50:35.694Z,1.42
2022-08-17T11:53:02.749Z,1.67
2022-08-17T11:55:35.675Z,2.00
2022-08-17T11:58:26.211Z,1.90
2022-08-17T12:00:56.933Z,1.88
2022-08-17T12:03:26.778Z,1.90
2022-08-17T12:06:02.889Z,1.70
2022-08-17T12:08:33.032Z,1.85
2022-08-17T12:11:02.425Z,1.90
2022-08-17T12:13:38.726Z,1.90
2022-08-17T12:16:08.522Z,1.98
2022-08-17T12:18:37.607Z,1.98
2022-08-17T12:21:22.833Z,1.80
2022-08-17T12:23:50.417Z,1.77
2022-08-17T12:26:24.908Z,1.77
2022-08-17T12:28:57.591Z,1.40
2022-08-17T12:31:29.609Z,1.83
2022-08-17T12:33:58.027Z,1.65
2022-08-17T12:36:25.685Z,1.92
2022-08-17T12:38:54.486Z,1.90
2022-08-17T12:41:30.391Z,1.70
2022-08-17T12:43:58.855Z,1.48
2022-08-17T12:46:25.752Z,1.85
2022-08-17T12:48:55.081Z,2.00
2022-08-17T12:51:27.061Z,1.40
2022-08-17T12:53:55.289Z,1.50
2022-08-17T12:56:22.216Z,1.63
2022-08-17T12:58:53.641Z,1.80
2022-08-17T13:01:21.132Z,1.80
2022-08-17T13:03:50.469Z,1.85
2022-08-17T13:06:31.507Z,1.88
2022-08-17T13:09:07.899Z,1.75
2022-08-17T13:11:34.630Z,1.70
2022-08-17T13:14:09.032Z,1.70
2022-08-17T13:16:35.821Z,1.80
2022-08-17T13:19:08.557Z,1.55
2022-08-17T13:21:39.115Z,1.95
2022-08-17T13:24:10.232Z,1.50
2022-08-17T13:26:51.520Z,1.70
2022-08-17T13:29:27.583Z,1.88
2022-08-17T13:32:04.220Z,1.80
2022-08-17T13:35:03.727Z,1.90
2022-08-17T13:37:32.875Z,2.30
2022-08-17T13:40:12.059Z,1.70
2022-08-17T13:42:53.363Z,1.70
2022-08-17T13:45:36.103Z,1.52
2022-08-17T13:48:13.687Z,1.65
2022-08-17T13:50:49.707Z,1.45
2022-08-17T13:53:25.462Z,1.52
2022-08-17T13:56:03.544Z,1.50
2022-08-17T13:58:37.984Z,1.75
2022-08-17T14:01:23.215Z,1.50
2022-08-17T14:03:53.591Z,1.90
2022-08-17T14:06:51.391Z,1.65
2022-08-17T14:09:11.530Z,2.13
2022-08-17T14:11:38.525Z,1.60
2022-08-17T14:14:05.277Z,1.90
2022-08-17T14:16:32.060Z,1.95
2022-08-17T14:18:59.008Z,1.70
2022-08-17T14:21:28.760Z,1.45
2022-08-17T14:23:56.066Z,1.90
2022-08-17T14:26:23.286Z,1.80
2022-08-17T14:28:56.279Z,2.00
2022-08-17T14:31:23.532Z,1.70
2022-08-17T14:33:50.275Z,1.65
2022-08-17T14:36:18.137Z,1.70
2022-08-17T14:38:45.363Z,1.90
2022-08-17T14:41:12.166Z,1.70
2022-08-17T14:43:40.061Z,2.00
2022-08-17T14:46:06.903Z,1.80
2022-08-17T14:48:35.945Z,1.63
2022-08-17T14:51:07.596Z,1.85
2022-08-17T14:53:34.370Z,1.80
2022-08-17T14:56:01.918Z,1.75
2022-08-17T14:58:31.187Z,1.67
2022-08-17T15:00:58.173Z,1.80
2022-08-17T15:03:24.933Z,2.30
2022-08-17T15:05:51.742Z,2.10
2022-08-17T15:08:22.168Z,2.28
2022-08-17T15:10:51.932Z,2.33
2022-08-17T15:13:24.844Z,2.10
2022-08-17T15:15:52.015Z,1.90
2022-08-17T15:18:19.170Z,2.00
2022-08-17T15:20:46.327Z,2.30
2022-08-17T15:23:20.382Z,1.88
2022-08-17T15:25:47.708Z,2.00
2022-08-17T15:28:15.345Z,2.20
2022-08-17T15:30:45.333Z,2.00
2022-08-17T15:33:16.264Z,1.60
2022-08-17T15:35:43.253Z,1.80
2022-08-17T15:38:12.280Z,2.05
2022-08-17T15:40:43.019Z,2.03
2022-08-17T15:43:11.906Z,1.67
2022-08-17T15:45:38.946Z,2.15
2022-08-17T15:48:09.067Z,2.20
2022-08-17T15:50:36.408Z,2.13
2022-08-17T15:53:05.143Z,2.10
2022-08-17T15:55:37.782Z,2.05
2022-08-17T15:58:07.284Z,2.15
2022-08-17T16:00:49.402Z,1.95
2022-08-17T16:03:58.385Z,1.58
2022-08-17T16:06:11.037Z,2.10
2022-08-17T16:08:41.145Z,2.03
2022-08-17T16:11:11.168Z,1.80
2022-08-17T16:13:39.911Z,2.17
2022-08-17T16:16:07.377Z,2.10
2022-08-17T16:18:34.300Z,1.58
2022-08-17T16:21:20.651Z,1.85
2022-08-17T16:23:48.379Z,1.63
2022-08-17T16:26:21.026Z,1.90
2022-08-17T16:28:47.899Z,2.05
2022-08-17T16:31:14.857Z,1.52
2022-08-17T16:34:15.832Z,2.30
2022-08-17T16:36:32.368Z,2.10
2022-08-17T16:39:02.614Z,1.80
2022-08-17T16:42:01.852Z,1.70
2022-08-17T16:44:31.166Z,1.70
2022-08-17T16:46:58.293Z,1.67
2022-08-17T16:49:36.713Z,1.90
2022-08-17T16:52:10.700Z,1.77
2022-08-17T16:54:38.531Z,1.92
2022-08-17T16:57:05.659Z,1.85
2022-08-17T16:59:40.781Z,1.83
2022-08-17T17:02:11.343Z,1.88
2022-08-17T17:04:42.402Z,2.08
2022-08-17T17:07:17.885Z,2.05
2022-08-17T17:09:48.122Z,1.98
2022-08-17T17:12:18.208Z,2.03
2022-08-17T17:14:46.684Z,2.33
2022-08-17T17:17:21.507Z,2.20
2022-08-17T17:19:51.645Z,2.42
2022-08-17T17:22:24.832Z,2.33
2022-08-17T17:25:09.328Z,1.90
2022-08-17T17:27:38.791Z,1.80
2022-08-17T17:30:27.977Z,1.95
2022-08-17T17:32:56.097Z,1.70
2022-08-17T17:35:31.771Z,1.77
2022-08-17T17:37:59.846Z,2.00
2022-08-17T17:40:34.143Z,1.88
2022-08-17T17:43:27.609Z,1.67
2022-08-17T17:46:21.883Z,1.80
2022-08-17T17:48:50.243Z,1.80
2022-08-17T17:52:05.247Z,1.90
2022-08-17T17:54:34.250Z,1.90
2022-08-17T17:57:09.234Z,1.92
2022-08-17T17:59:44.036Z,1.80
2022-08-17T18:02:33.913Z,2.00
2022-08-17T18:05:06.147Z,1.85
2022-08-17T18:07:41.103Z,2.03
2022-08-17T18:10:19.465Z,1.77
2022-08-17T18:13:03.219Z,1.80
2022-08-17T18:15:35.066Z,1.80
2022-08-17T18:18:02.743Z,2.13
2022-08-17T18:20:35.962Z,1.88
2022-08-17T18:23:13.127Z,2.10
2022-08-17T18:25:51.355Z,1.90
2022-08-17T18:28:50.254Z,1.73
2022-08-17T18:31:20.711Z,1.80
2022-08-17T18:33:49.483Z,2.15
2022-08-17T18:36:32.731Z,1.90
2022-08-17T18:39:19.281Z,1.85
2022-08-17T18:41:47.731Z,1.75
2022-08-17T18:44:23.796Z,1.75
2022-08-17T18:47:06.502Z,1.90
2022-08-17T18:49:33.778Z,2.30
2022-08-17T18:52:21.684Z,1.58
2022-08-17T18:55:00.790Z,1.75
2022-08-17T18:57:36.063Z,1.85
2022-08-17T19:00:10.179Z,2.55
2022-08-17T19:02:48.735Z,2.47
2022-08-17T19:05:34.514Z,2.30
2022-08-17T19:08:19.953Z,1.98
2022-08-17T19:10:47.956Z,1.83
2022-08-17T19:13:14.874Z,2.45
2022-08-17T19:16:12.216Z,2.30
2022-08-17T19:18:50.716Z,2.38
2022-08-17T19:21:23.552Z,2.03
2022-08-17T19:24:04.977Z,2.13
2022-08-17T19:26:54.010Z,2.22
2022-08-17T19:29:42.038Z,2.10
2022-08-17T19:32:09.853Z,2.17
2022-08-17T19:34:39.491Z,2.08
2022-08-17T19:37:10.576Z,2.33
2022-08-17T19:39:43.808Z,2.13
2022-08-17T19:42:10.488Z,1.88
2022-08-17T19:44:55.749Z,2.10
2022-08-17T19:47:53.179Z,2.60
2022-08-17T19:50:19.181Z,2.03
2022-08-17T19:53:04.556Z,2.10
2022-08-17T19:56:01.074Z,2.08
2022-08-17T19:58:39.416Z,1.92
2022-08-17T20:01:10.189Z,2.20
2022-08-17T20:03:43.074Z,2.10
2022-08-17T20:06:14.181Z,2.42
2022-08-17T20:08:48.967Z,2.20
2022-08-17T20:11:18.997Z,2.13
2022-08-17T20:14:11.441Z,2.00
2022-08-17T20:16:41.158Z,2.10
2022-08-17T20:19:13.117Z,2.38
2022-08-17T20:21:48.637Z,2.08
2022-08-17T20:24:34.974Z,2.42
2022-08-17T20:27:13.033Z,2.30
2022-08-17T20:29:58.374Z,2.22
2022-08-17T20:32:27.023Z,2.30
2022-08-17T20:35:04.318Z,2.20
2022-08-17T20:37:35.233Z,2.45
2022-08-17T20:40:05.888Z,2.13
2022-08-17T20:42:34.108Z,2.17
2022-08-17T20:45:05.417Z,2.00
2022-08-17T20:47:34.073Z,2.00
2022-08-17T20:50:06.056Z,2.03
2022-08-17T20:52:44.707Z,2.67
2022-08-17T20:55:30.574Z,2.22
2022-08-17T20:58:02.556Z,2.30
2022-08-17T21:00:29.352Z,2.22
2022-08-17T21:03:14.622Z,2.70
2022-08-17T21:06:00.193Z,2.40
2022-08-17T21:08:28.123Z,2.33
2022-08-17T21:10:55.226Z,2.47
2022-08-17T21:13:35.028Z,2.28
2022-08-17T21:16:20.714Z,2.67
2022-08-17T21:19:07.535Z,2.30
2022-08-17T21:21:54.944Z,2.35
2022-08-17T21:24:21.953Z,2.70
2022-08-17T21:27:12.488Z,2.58
2022-08-17T21:29:58.230Z,2.75
2022-08-17T21:32:32.246Z,2.40
2022-08-17T21:35:22.334Z,2.45
2022-08-17T21:37:50.544Z,2.22
2022-08-17T21:40:21.506Z,2.50
2022-08-17T21:42:50.743Z,2.47
2022-08-17T21:45:26.835Z,2.28
2022-08-17T21:48:11.651Z,2.63
2022-08-17T21:50:39.011Z,2.45
2022-08-17T21:53:05.944Z,2.33
2022-08-17T21:55:36.271Z,2.53
2022-08-17T21:58:14.212Z,2.67
2022-08-17T22:00:44.817Z,2.67
2022-08-17T22:03:22.189Z,2.55
2022-08-17T22:05:52.379Z,2.60
2022-08-17T22:08:20.891Z,2.97
2022-08-17T22:10:50.951Z,2.70
2022-08-17T22:13:17.827Z,2.70
2022-08-17T22:15:48.631Z,2.40
2022-08-17T22:18:27.613Z,2.67
2022-08-17T22:20:55.884Z,2.63
2022-08-17T22:23:47.374Z,2.15
2022-08-17T22:26:15.808Z,2.72
2022-08-17T22:28:52.523Z,2.50
2022-08-17T22:31:19.261Z,2.67
2022-08-17T22:33:50.719Z,2.50
2022-08-17T22:36:25.254Z,2.60
2022-08-17T22:38:54.338Z,2.95
2022-08-17T22:41:26.838Z,2.33
2022-08-17T22:43:54.277Z,2.75
2022-08-17T22:46:21.883Z,2.80
2022-08-17T22:48:50.576Z,2.72
2022-08-17T22:51:26.092Z,2.35
2022-08-17T22:54:17.709Z,3.22
2022-08-17T22:57:19.132Z,2.45
2022-08-17T22:59:48.109Z,2.67
2022-08-17T23:02:14.963Z,2.80
2022-08-17T23:04:45.057Z,2.63
2022-08-17T23:07:12.090Z,2.60
2022-08-17T23:09:39.563Z,3.25
2022-08-17T23:12:11.206Z,2.97
2022-08-17T23:14:41.296Z,2.90
2022-08-17T23:17:08.681Z,3.08
2022-08-17T23:19:35.783Z,3.00
2022-08-17T23:22:04.589Z,2.80
2022-08-17T23:24:35.688Z,3.00
2022-08-17T23:27:05.384Z,2.90
2022-08-17T23:29:32.227Z,3.03
2022-08-17T23:32:00.253Z,2.60
2022-08-17T23:34:32.211Z,2.38
2022-08-17T23:37:02.372Z,2.97
2022-08-17T23:39:29.418Z,2.88
2022-08-17T23:42:00.521Z,2.80
2022-08-17T23:44:30.551Z,2.35
2022-08-17T23:46:57.580Z,2.70
2022-08-17T23:49:25.305Z,2.67
2022-08-17T23:51:54.869Z,2.70
2022-08-17T23:54:35.042Z,2.75
2022-08-17T23:57:02.237Z,2.92
2022-08-17T23:59:34.068Z,2.83
